Highland-University Park's Hourly Summary for Monday, July 9, 2018
Hour Temp
(f)
RH
(%)
Solar Rad.
(MJ/m2)
Rainfall
(in)
Wind
(mph)
7/9/2018 12:00 AM 80 64 0 0 1.64
7/9/2018 1:00 AM 79 67 0 0 1.96
7/9/2018 2:00 AM 78 71 0 0 1.24
7/9/2018 3:00 AM 77 77 0 0 0.95
7/9/2018 4:00 AM 77 80 0 0 0.6
7/9/2018 5:00 AM 77 79 0 0 0.59
7/9/2018 6:00 AM 77 80 0 0 0.18
7/9/2018 7:00 AM 76 83 0.02 0 0.2
7/9/2018 8:00 AM 77 80 0.14 0 0.09
7/9/2018 9:00 AM 79 74 0.32 0 0.46
7/9/2018 10:00 AM 83 63 1.27 0 0.84
7/9/2018 11:00 AM 85 60 1.25 0 1.08
7/9/2018 12:00 PM 88 48 2.34 0 2.04
7/9/2018 1:00 PM 91 43 3.19 0 2.1
7/9/2018 2:00 PM 91 44 1.85 0 1.97
7/9/2018 3:00 PM 88 44 0.68 0 1.76
7/9/2018 4:00 PM 81 69 0.24 0 1.41
7/9/2018 5:00 PM 83 62 0.84 0 0.38
7/9/2018 6:00 PM 88 53 1.22 0 1.95
7/9/2018 7:00 PM 84 61 0.97 0 4.04
7/9/2018 8:00 PM 81 70 0.14 0 2.88
7/9/2018 9:00 PM 81 72 0.03 0 1.68
7/9/2018 10:00 PM 80 70 0 0 1.59
7/9/2018 11:00 PM 79 71 0 0 1.89
Data Summary 81 66 14.50 0.00 1.40